WXM80 ListenWXM80 Stop

You find our weather info also at:

UK Metoffice

WeatherCloud

Weather Underground

Northeastern Weather Network

AWEKAS

Citizen Weather Observer Program (CWOP)

HAMweather, WeatherForYou, PWS Weather


Weather Underground History page Text

Daily Summary for April 7, 2017 Units:  Both    English   Metric
« Previous Day
Next Day »
Daily Weekly Monthly Yearly Custom
  High: Low: Average:
Temperature: 50.8 °F /  10.4 °C 41.2 °F /  5.1 °C 46.7 °F /  8.2 °C
Dew Point: 46.6 °F /  8.1 °C 31.1 °F /  -0.5 °C 38.4 °F /  3.6 °C
Humidity: 93 % 59 % 73 %
Wind Speed: 11.9 mph /  19.2 km/h - 6.3 mph /  10.1 km/h
Wind Gust: 22.0 mph /  35.4 km/h - -
Wind:- - WSW
Pressure: 29.58 in /  1001.6 hPa 29.25 in /  990.4 hPa -
Precipitation: 0.00 in /  0 mm    
Historical Graphs
 
 
Tabular Data for April 7, 2017
Time Temperature Dew Point Pressure Wind Wind Speed Wind Gust Humidity Rainfall Rate (Hourly)
00:00 49.2 °F /  9.6 °C 46.1 °F /  7.8 °C 29.25 in /  990.4 hPa SW 5.0 mph /  8 km/h 10.4 mph /  16.7 km/h 89 % 0.00 in /  0 mm
00:05 49.2 °F /  9.6 °C 46.4 °F /  8 °C 29.25 in /  990.4 hPa SW 6.3 mph /  10.1 km/h 9.2 mph /  14.8 km/h 90 % 0.00 in /  0 mm
00:10 49.2 °F /  9.6 °C 46.4 °F /  8 °C 29.25 in /  990.4 hPa South 5.0 mph /  8 km/h 11.0 mph /  17.7 km/h 90 % 0.00 in /  0 mm
00:15 49.2 °F /  9.6 °C 46.4 °F /  8 °C 29.25 in /  990.4 hPa SSW 5.3 mph /  8.5 km/h 10.4 mph /  16.7 km/h 90 % 0.00 in /  0 mm
00:20 49.2 °F /  9.6 °C 46.4 °F /  8 °C 29.25 in /  990.4 hPa SW 2.7 mph /  4.3 km/h 11.5 mph /  18.5 km/h 90 % 0.00 in /  0 mm
00:25 49.1 °F /  9.5 °C 46.3 °F /  7.9 °C 29.26 in /  990.7 hPa South 3.7 mph /  6 km/h 6.9 mph /  11.1 km/h 90 % 0.00 in /  0 mm
00:30 49.1 °F /  9.5 °C 46.3 °F /  7.9 °C 29.26 in /  990.7 hPa SSW 4.2 mph /  6.8 km/h 5.8 mph /  9.3 km/h 90 % 0.00 in /  0 mm
00:35 49.1 °F /  9.5 °C 46.3 °F /  7.9 °C 29.25 in /  990.4 hPa SW 5.8 mph /  9.3 km/h 11.5 mph /  18.5 km/h 90 % 0.00 in /  0 mm
00:40 49.1 °F /  9.5 °C 46.6 °F /  8.1 °C 29.25 in /  990.4 hPa South 3.8 mph /  6.1 km/h 9.2 mph /  14.8 km/h 91 % 0.00 in /  0 mm
00:46 49.1 °F /  9.5 °C 46.6 °F /  8.1 °C 29.26 in /  990.7 hPa SSW 4.5 mph /  7.2 km/h 11.5 mph /  18.5 km/h 91 % 0.00 in /  0 mm
00:51 49.1 °F /  9.5 °C 46.6 °F /  8.1 °C 29.26 in /  990.7 hPa SSW 5.1 mph /  8.2 km/h 6.9 mph /  11.1 km/h 91 % 0.00 in /  0 mm
00:56 49.0 °F /  9.4 °C 46.5 °F /  8.1 °C 29.26 in /  990.7 hPa SSW 1.9 mph /  3.1 km/h 3.5 mph /  5.6 km/h 91 % 0.00 in /  0 mm
01:01 49.0 °F /  9.4 °C 46.5 °F /  8.1 °C 29.27 in /  991.1 hPa SSW 3.6 mph /  5.8 km/h 4.6 mph /  7.4 km/h 91 % 0.00 in /  0 mm
01:06 48.9 °F /  9.4 °C 46.4 °F /  8 °C 29.27 in /  991.1 hPa South 5.0 mph /  8 km/h 6.9 mph /  11.1 km/h 91 % 0.00 in /  0 mm
01:09 48.8 °F /  9.3 °C 46.3 °F /  7.9 °C 29.27 in /  991.1 hPa South 1.8 mph /  2.9 km/h 5.8 mph /  9.3 km/h 91 % 0.00 in /  0 mm
01:14 48.6 °F /  9.2 °C 46.1 °F /  7.8 °C 29.27 in /  991.1 hPa South 4.6 mph /  7.4 km/h 9.2 mph /  14.8 km/h 91 % 0.00 in /  0 mm
01:19 48.5 °F /  9.2 °C 46.0 °F /  7.8 °C 29.27 in /  991.1 hPa South 3.0 mph /  4.8 km/h 6.9 mph /  11.1 km/h 91 % 0.00 in /  0 mm
01:24 48.3 °F /  9.1 °C 45.8 °F /  7.7 °C 29.27 in /  991.1 hPa South 3.0 mph /  4.8 km/h 4.6 mph /  7.4 km/h 91 % 0.00 in /  0 mm
01:29 48.2 °F /  9 °C 45.7 °F /  7.6 °C 29.27 in /  991.1 hPa South 4.2 mph /  6.8 km/h 9.2 mph /  14.8 km/h 91 % 0.00 in /  0 mm
01:34 48.1 °F /  8.9 °C 45.6 °F /  7.6 °C 29.27 in /  991.1 hPa South 3.6 mph /  5.8 km/h 10.4 mph /  16.7 km/h 91 % 0.00 in /  0 mm
01:39 48.0 °F /  8.9 °C 45.5 °F /  7.5 °C 29.27 in /  991.1 hPa South 3.0 mph /  4.8 km/h 5.8 mph /  9.3 km/h 91 % 0.00 in /  0 mm
01:44 47.9 °F /  8.8 °C 45.7 °F /  7.6 °C 29.27 in /  991.1 hPa South 3.2 mph /  5.1 km/h 5.8 mph /  9.3 km/h 92 % 0.00 in /  0 mm
01:49 47.9 °F /  8.8 °C 45.7 °F /  7.6 °C 29.27 in /  991.1 hPa SSW 3.0 mph /  4.8 km/h 4.6 mph /  7.4 km/h 92 % 0.00 in /  0 mm
01:54 47.9 °F /  8.8 °C 45.7 °F /  7.6 °C 29.26 in /  990.7 hPa SSW 2.1 mph /  3.4 km/h 5.8 mph /  9.3 km/h 92 % 0.00 in /  0 mm
01:59 47.8 °F /  8.8 °C 45.6 °F /  7.6 °C 29.26 in /  990.7 hPa SSW 2.9 mph /  4.7 km/h 4.6 mph /  7.4 km/h 92 % 0.00 in /  0 mm
02:04 47.8 °F /  8.8 °C 45.6 °F /  7.6 °C 29.26 in /  990.7 hPa South 1.7 mph /  2.7 km/h 4.6 mph /  7.4 km/h 92 % 0.00 in /  0 mm
02:09 47.8 °F /  8.8 °C 45.9 °F /  7.7 °C 29.26 in /  990.7 hPa SSW 2.7 mph /  4.3 km/h 3.5 mph /  5.6 km/h 93 % 0.00 in /  0 mm
02:15 47.8 °F /  8.8 °C 45.6 °F /  7.6 °C 29.26 in /  990.7 hPa SSW 2.5 mph /  4 km/h 5.0 mph /  8 km/h 92 % 0.00 in /  0 mm
02:20 47.8 °F /  8.8 °C 45.6 °F /  7.6 °C 29.26 in /  990.7 hPa SSW 3.6 mph /  5.8 km/h 6.9 mph /  11.1 km/h 92 % 0.00 in /  0 mm
02:25 47.8 °F /  8.8 °C 45.6 °F /  7.6 °C 29.26 in /  990.7 hPa SSW 4.4 mph /  7.1 km/h 6.9 mph /  11.1 km/h 92 % 0.00 in /  0 mm
02:30 47.8 °F /  8.8 °C 45.6 °F /  7.6 °C 29.26 in /  990.7 hPa South 5.6 mph /  9 km/h 9.2 mph /  14.8 km/h 92 % 0.00 in /  0 mm
02:35 47.8 °F /  8.8 °C 45.6 °F /  7.6 °C 29.26 in /  990.7 hPa SSW 3.2 mph /  5.1 km/h 6.0 mph /  9.7 km/h 92 % 0.00 in /  0 mm
02:38 47.9 °F /  8.8 °C 45.7 °F /  7.6 °C 29.26 in /  990.7 hPa SW 5.5 mph /  8.9 km/h 11.0 mph /  17.7 km/h 92 % 0.00 in /  0 mm
02:43 47.9 °F /  8.8 °C 45.4 °F /  7.4 °C 29.26 in /  990.7 hPa SW 4.4 mph /  7.1 km/h 6.9 mph /  11.1 km/h 91 % 0.00 in /  0 mm
02:49 47.9 °F /  8.8 °C 45.4 °F /  7.4 °C 29.26 in /  990.7 hPa SSW 2.8 mph /  4.5 km/h 5.8 mph /  9.3 km/h 91 % 0.00 in /  0 mm
02:54 47.9 °F /  8.8 °C 45.4 °F /  7.4 °C 29.26 in /  990.7 hPa SSW 1.6 mph /  2.6 km/h 4.6 mph /  7.4 km/h 91 % 0.00 in /  0 mm
02:59 47.8 °F /  8.8 °C 45.3 °F /  7.4 °C 29.26 in /  990.7 hPa SW 4.9 mph /  7.9 km/h 7.0 mph /  11.3 km/h 91 % 0.00 in /  0 mm
03:04 47.7 °F /  8.7 °C 44.9 °F /  7.2 °C 29.26 in /  990.7 hPa SSW 3.2 mph /  5.1 km/h 3.5 mph /  5.6 km/h 90 % 0.00 in /  0 mm
03:09 47.6 °F /  8.7 °C 44.8 °F /  7.1 °C 29.26 in /  990.7 hPa South 2.0 mph /  3.2 km/h 3.5 mph /  5.6 km/h 90 % 0.00 in /  0 mm
03:14 47.6 °F /  8.7 °C 44.5 °F /  6.9 °C 29.27 in /  991.1 hPa SSW 4.8 mph /  7.7 km/h 9.0 mph /  14.5 km/h 89 % 0.00 in /  0 mm
03:19 47.5 °F /  8.6 °C 44.4 °F /  6.9 °C 29.27 in /  991.1 hPa SSW 3.8 mph /  6.1 km/h 9.2 mph /  14.8 km/h 89 % 0.00 in /  0 mm
03:24 47.5 °F /  8.6 °C 43.8 °F /  6.6 °C 29.27 in /  991.1 hPa SSW 4.6 mph /  7.4 km/h 9.2 mph /  14.8 km/h 87 % 0.00 in /  0 mm
03:29 47.8 °F /  8.8 °C 43.8 °F /  6.6 °C 29.26 in /  990.7 hPa SW 5.4 mph /  8.7 km/h 8.0 mph /  12.9 km/h 86 % 0.00 in /  0 mm
03:34 47.9 °F /  8.8 °C 43.6 °F /  6.4 °C 29.26 in /  990.7 hPa SSW 4.9 mph /  7.9 km/h 9.2 mph /  14.8 km/h 85 % 0.00 in /  0 mm
03:39 48.0 °F /  8.9 °C 43.7 °F /  6.5 °C 29.27 in /  991.1 hPa SW 6.3 mph /  10.1 km/h 9.2 mph /  14.8 km/h 85 % 0.00 in /  0 mm
03:44 48.1 °F /  8.9 °C 43.5 °F /  6.4 °C 29.27 in /  991.1 hPa SSW 6.5 mph /  10.5 km/h 13.8 mph /  22.2 km/h 84 % 0.00 in /  0 mm
03:49 48.2 °F /  9 °C 43.3 °F /  6.3 °C 29.26 in /  990.7 hPa SW 9.1 mph /  14.6 km/h 12.0 mph /  19.3 km/h 83 % 0.00 in /  0 mm
03:54 48.4 °F /  9.1 °C 43.2 °F /  6.2 °C 29.26 in /  990.7 hPa WSW 5.9 mph /  9.5 km/h 11.5 mph /  18.5 km/h 82 % 0.00 in /  0 mm
03:59 48.5 °F /  9.2 °C 42.9 °F /  6.1 °C 29.26 in /  990.7 hPa WSW 3.2 mph /  5.1 km/h 9.2 mph /  14.8 km/h 81 % 0.00 in /  0 mm
04:05 48.5 °F /  9.2 °C 43.3 °F /  6.3 °C 29.26 in /  990.7 hPa WSW 4.2 mph /  6.8 km/h 10.0 mph /  16.1 km/h 82 % 0.00 in /  0 mm
04:10 48.4 °F /  9.1 °C 43.2 °F /  6.2 °C 29.26 in /  990.7 hPa SW 4.6 mph /  7.4 km/h 9.2 mph /  14.8 km/h 82 % 0.00 in /  0 mm
04:15 48.3 °F /  9.1 °C 42.1 °F /  5.6 °C 29.26 in /  990.7 hPa WSW 5.7 mph /  9.2 km/h 9.2 mph /  14.8 km/h 79 % 0.00 in /  0 mm
04:20 48.3 °F /  9.1 °C 41.8 °F /  5.4 °C 29.26 in /  990.7 hPa SSW 5.8 mph /  9.3 km/h 10.4 mph /  16.7 km/h 78 % 0.00 in /  0 mm
04:25 48.2 °F /  9 °C 41.3 °F /  5.2 °C 29.26 in /  990.7 hPa WSW 6.4 mph /  10.3 km/h 10.4 mph /  16.7 km/h 77 % 0.00 in /  0 mm
04:30 48.2 °F /  9 °C 41.7 °F /  5.4 °C 29.26 in /  990.7 hPa WSW 4.1 mph /  6.6 km/h 6.9 mph /  11.1 km/h 78 % 0.00 in /  0 mm
04:35 48.1 °F /  8.9 °C 41.2 °F /  5.1 °C 29.26 in /  990.7 hPa South 5.5 mph /  8.9 km/h 9.2 mph /  14.8 km/h 77 % 0.00 in /  0 mm
04:40 48.0 °F /  8.9 °C 40.8 °F /  4.9 °C 29.26 in /  990.7 hPa SW 7.9 mph /  12.7 km/h 13.8 mph /  22.2 km/h 76 % 0.00 in /  0 mm
04:45 47.9 °F /  8.8 °C 41.0 °F /  5 °C 29.26 in /  990.7 hPa WSW 4.5 mph /  7.2 km/h 9.2 mph /  14.8 km/h 77 % 0.00 in /  0 mm
04:50 47.8 °F /  8.8 °C 40.6 °F /  4.8 °C 29.26 in /  990.7 hPa SSW 5.2 mph /  8.4 km/h 8.0 mph /  12.9 km/h 76 % 0.00 in /  0 mm
04:55 47.8 °F /  8.8 °C 40.6 °F /  4.8 °C 29.26 in /  990.7 hPa SSW 5.6 mph /  9 km/h 11.5 mph /  18.5 km/h 76 % 0.00 in /  0 mm
05:00 47.7 °F /  8.7 °C 40.5 °F /  4.7 °C 29.26 in /  990.7 hPa SW 4.6 mph /  7.4 km/h 7.0 mph /  11.3 km/h 76 % 0.00 in /  0 mm
05:05 47.5 °F /  8.6 °C 40.3 °F /  4.6 °C 29.26 in /  990.7 hPa WSW 5.0 mph /  8 km/h 10.4 mph /  16.7 km/h 76 % 0.00 in /  0 mm
05:10 47.4 °F /  8.6 °C 39.9 °F /  4.4 °C 29.26 in /  990.7 hPa WSW 1.6 mph /  2.6 km/h 5.8 mph /  9.3 km/h 75 % 0.00 in /  0 mm
05:15 47.2 °F /  8.4 °C 39.7 °F /  4.3 °C 29.26 in /  990.7 hPa WSW 6.3 mph /  10.1 km/h 11.5 mph /  18.5 km/h 75 % 0.00 in /  0 mm
05:20 47.0 °F /  8.3 °C 39.8 °F /  4.3 °C 29.26 in /  990.7 hPa SW 4.7 mph /  7.6 km/h 9.2 mph /  14.8 km/h 76 % 0.00 in /  0 mm
05:25 46.8 °F /  8.2 °C 39.6 °F /  4.2 °C 29.26 in /  990.7 hPa SW 3.8 mph /  6.1 km/h 10.4 mph /  16.7 km/h 76 % 0.00 in /  0 mm
05:30 46.7 °F /  8.2 °C 39.5 °F /  4.2 °C 29.26 in /  990.7 hPa South 6.9 mph /  11.1 km/h 9.2 mph /  14.8 km/h 76 % 0.00 in /  0 mm
05:35 46.5 °F /  8.1 °C 39.7 °F /  4.3 °C 29.26 in /  990.7 hPa SW 3.9 mph /  6.3 km/h 6.9 mph /  11.1 km/h 77 % 0.00 in /  0 mm
05:40 46.3 °F /  7.9 °C 39.5 °F /  4.2 °C 29.26 in /  990.7 hPa SSW 4.4 mph /  7.1 km/h 7.0 mph /  11.3 km/h 77 % 0.00 in /  0 mm
05:45 46.1 °F /  7.8 °C 39.0 °F /  3.9 °C 29.26 in /  990.7 hPa WSW 4.2 mph /  6.8 km/h 12.7 mph /  20.4 km/h 76 % 0.00 in /  0 mm
05:50 46.0 °F /  7.8 °C 38.9 °F /  3.8 °C 29.27 in /  991.1 hPa SW 1.9 mph /  3.1 km/h 3.5 mph /  5.6 km/h 76 % 0.00 in /  0 mm
05:55 45.9 °F /  7.7 °C 39.1 °F /  3.9 °C 29.27 in /  991.1 hPa SW 4.4 mph /  7.1 km/h 9.2 mph /  14.8 km/h 77 % 0.00 in /  0 mm
06:00 45.8 °F /  7.7 °C 39.0 °F /  3.9 °C 29.27 in /  991.1 hPa SSW 2.0 mph /  3.2 km/h 9.2 mph /  14.8 km/h 77 % 0.00 in /  0 mm
06:05 45.6 °F /  7.6 °C 38.8 °F /  3.8 °C 29.27 in /  991.1 hPa SW 5.7 mph /  9.2 km/h 8.1 mph /  13 km/h 77 % 0.00 in /  0 mm
06:10 45.6 °F /  7.6 °C 38.8 °F /  3.8 °C 29.27 in /  991.1 hPa WSW 5.0 mph /  8 km/h 9.2 mph /  14.8 km/h 77 % 0.00 in /  0 mm
06:15 45.4 °F /  7.4 °C 38.9 °F /  3.8 °C 29.27 in /  991.1 hPa SSW 3.9 mph /  6.3 km/h 8.1 mph /  13 km/h 78 % 0.00 in /  0 mm
06:20 45.3 °F /  7.4 °C 38.5 °F /  3.6 °C 29.27 in /  991.1 hPa SW 5.9 mph /  9.5 km/h 10.4 mph /  16.7 km/h 77 % 0.00 in /  0 mm
06:25 45.2 °F /  7.3 °C 38.7 °F /  3.7 °C 29.28 in /  991.4 hPa SSW 7.0 mph /  11.3 km/h 11.5 mph /  18.5 km/h 78 % 0.00 in /  0 mm
06:30 45.1 °F /  7.3 °C 38.3 °F /  3.5 °C 29.28 in /  991.4 hPa SW 8.9 mph /  14.3 km/h 11.5 mph /  18.5 km/h 77 % 0.00 in /  0 mm
06:35 45.1 °F /  7.3 °C 38.3 °F /  3.5 °C 29.27 in /  991.1 hPa SW 8.2 mph /  13.2 km/h 13.8 mph /  22.2 km/h 77 % 0.00 in /  0 mm
06:41 45.1 °F /  7.3 °C 38.6 °F /  3.7 °C 29.28 in /  991.4 hPa WSW 2.1 mph /  3.4 km/h 4.6 mph /  7.4 km/h 78 % 0.00 in /  0 mm
06:46 44.9 °F /  7.2 °C 38.5 °F /  3.6 °C 29.28 in /  991.4 hPa South 2.8 mph /  4.5 km/h 5.8 mph /  9.3 km/h 78 % 0.00 in /  0 mm
06:51 44.9 °F /  7.2 °C 38.5 °F /  3.6 °C 29.28 in /  991.4 hPa SW 5.1 mph /  8.2 km/h 8.1 mph /  13 km/h 78 % 0.00 in /  0 mm
06:56 44.8 °F /  7.1 °C 38.4 °F /  3.6 °C 29.28 in /  991.4 hPa SW 3.7 mph /  6 km/h 10.4 mph /  16.7 km/h 78 % 0.00 in /  0 mm
07:01 44.8 °F /  7.1 °C 38.4 °F /  3.6 °C 29.28 in /  991.4 hPa SW 5.6 mph /  9 km/h 9.0 mph /  14.5 km/h 78 % 0.00 in /  0 mm
07:06 44.9 °F /  7.2 °C 38.5 °F /  3.6 °C 29.28 in /  991.4 hPa SSW 6.5 mph /  10.5 km/h 11.0 mph /  17.7 km/h 78 % 0.00 in /  0 mm
07:11 45.1 °F /  7.3 °C 38.6 °F /  3.7 °C 29.28 in /  991.4 hPa SSW 3.5 mph /  5.6 km/h 8.1 mph /  13 km/h 78 % 0.00 in /  0 mm
07:16 45.3 °F /  7.4 °C 38.5 °F /  3.6 °C 29.28 in /  991.4 hPa SW 5.8 mph /  9.3 km/h 11.5 mph /  18.5 km/h 77 % 0.00 in /  0 mm
07:21 45.6 °F /  7.6 °C 38.5 °F /  3.6 °C 29.29 in /  991.8 hPa SSW 7.5 mph /  12.1 km/h 11.5 mph /  18.5 km/h 76 % 0.00 in /  0 mm
07:26 45.8 °F /  7.7 °C 38.3 °F /  3.5 °C 29.29 in /  991.8 hPa WSW 6.3 mph /  10.1 km/h 12.7 mph /  20.4 km/h 75 % 0.00 in /  0 mm
07:31 46.0 °F /  7.8 °C 38.5 °F /  3.6 °C 29.29 in /  991.8 hPa SSW 7.7 mph /  12.4 km/h 11.5 mph /  18.5 km/h 75 % 0.00 in /  0 mm
07:36 46.2 °F /  7.9 °C 38.4 °F /  3.6 °C 29.29 in /  991.8 hPa SW 9.3 mph /  15 km/h 16.1 mph /  25.9 km/h 74 % 0.00 in /  0 mm
07:41 46.4 °F /  8 °C 38.6 °F /  3.7 °C 29.28 in /  991.4 hPa SW 7.1 mph /  11.4 km/h 15.0 mph /  24.1 km/h 74 % 0.00 in /  0 mm
07:46 46.6 °F /  8.1 °C 38.8 °F /  3.8 °C 29.29 in /  991.8 hPa West 6.9 mph /  11.1 km/h 10.0 mph /  16.1 km/h 74 % 0.00 in /  0 mm
07:51 46.9 °F /  8.3 °C 39.0 °F /  3.9 °C 29.29 in /  991.8 hPa WSW 3.6 mph /  5.8 km/h 6.9 mph /  11.1 km/h 74 % 0.00 in /  0 mm
07:56 47.1 °F /  8.4 °C 38.9 °F /  3.8 °C 29.29 in /  991.8 hPa SSW 8.2 mph /  13.2 km/h 13.8 mph /  22.2 km/h 73 % 0.00 in /  0 mm
08:01 47.5 °F /  8.6 °C 38.9 °F /  3.8 °C 29.29 in /  991.8 hPa SSW 5.6 mph /  9 km/h 12.7 mph /  20.4 km/h 72 % 0.00 in /  0 mm
08:06 47.8 °F /  8.8 °C 39.2 °F /  4 °C 29.29 in /  991.8 hPa SW 5.3 mph /  8.5 km/h 8.0 mph /  12.9 km/h 72 % 0.00 in /  0 mm
08:11 48.2 °F /  9 °C 39.2 °F /  4 °C 29.29 in /  991.8 hPa SSW 8.2 mph /  13.2 km/h 11.5 mph /  18.5 km/h 71 % 0.00 in /  0 mm
08:16 48.5 °F /  9.2 °C 39.2 °F /  4 °C 29.30 in /  992.1 hPa SW 6.2 mph /  10 km/h 13.8 mph /  22.2 km/h 70 % 0.00 in /  0 mm
08:21 48.8 °F /  9.3 °C 39.4 °F /  4.1 °C 29.29 in /  991.8 hPa WSW 5.5 mph /  8.9 km/h 8.1 mph /  13 km/h 70 % 0.00 in /  0 mm
08:26 49.1 °F /  9.5 °C 39.7 °F /  4.3 °C 29.29 in /  991.8 hPa SSW 6.0 mph /  9.7 km/h 6.9 mph /  11.1 km/h 70 % 0.00 in /  0 mm
08:31 49.4 °F /  9.7 °C 39.7 °F /  4.3 °C 29.29 in /  991.8 hPa South 8.7 mph /  14 km/h 15.0 mph /  24.1 km/h 69 % 0.00 in /  0 mm
08:36 49.7 °F /  9.8 °C 39.6 °F /  4.2 °C 29.29 in /  991.8 hPa WSW 6.0 mph /  9.7 km/h 11.5 mph /  18.5 km/h 68 % 0.00 in /  0 mm
08:42 50.1 °F /  10.1 °C 39.9 °F /  4.4 °C 29.29 in /  991.8 hPa SW 9.0 mph /  14.5 km/h 14.0 mph /  22.5 km/h 68 % 0.00 in /  0 mm
08:47 50.6 °F /  10.3 °C 40.0 °F /  4.4 °C 29.29 in /  991.8 hPa WSW 8.9 mph /  14.3 km/h 13.0 mph /  20.9 km/h 67 % 0.00 in /  0 mm
08:52 50.8 °F /  10.4 °C 39.8 °F /  4.3 °C 29.30 in /  992.1 hPa SSW 4.5 mph /  7.2 km/h 10.0 mph /  16.1 km/h 66 % 0.00 in /  0 mm
08:57 50.4 °F /  10.2 °C 39.1 °F /  3.9 °C 29.30 in /  992.1 hPa SW 9.0 mph /  14.5 km/h 15.0 mph /  24.1 km/h 65 % 0.00 in /  0 mm
09:02 50.1 °F /  10.1 °C 38.8 °F /  3.8 °C 29.30 in /  992.1 hPa WSW 5.2 mph /  8.4 km/h 11.5 mph /  18.5 km/h 65 % 0.00 in /  0 mm
09:07 49.7 °F /  9.8 °C 38.8 °F /  3.8 °C 29.30 in /  992.1 hPa WSW 7.2 mph /  11.6 km/h 11.5 mph /  18.5 km/h 66 % 0.00 in /  0 mm
09:12 49.3 °F /  9.6 °C 38.4 °F /  3.6 °C 29.30 in /  992.1 hPa SW 4.5 mph /  7.2 km/h 11.5 mph /  18.5 km/h 66 % 0.00 in /  0 mm
09:17 49.2 °F /  9.6 °C 38.7 °F /  3.7 °C 29.30 in /  992.1 hPa SW 7.9 mph /  12.7 km/h 13.8 mph /  22.2 km/h 67 % 0.00 in /  0 mm
09:22 49.0 °F /  9.4 °C 38.1 °F /  3.4 °C 29.31 in /  992.4 hPa WSW 7.0 mph /  11.3 km/h 11.5 mph /  18.5 km/h 66 % 0.00 in /  0 mm
09:27 48.7 °F /  9.3 °C 38.2 °F /  3.4 °C 29.31 in /  992.4 hPa SSW 7.6 mph /  12.2 km/h 10.4 mph /  16.7 km/h 67 % 0.00 in /  0 mm
09:32 48.5 °F /  9.2 °C 38.0 °F /  3.3 °C 29.31 in /  992.4 hPa SW 3.5 mph /  5.6 km/h 8.1 mph /  13 km/h 67 % 0.00 in /  0 mm
09:37 48.3 °F /  9.1 °C 37.8 °F /  3.2 °C 29.31 in /  992.4 hPa WSW 7.6 mph /  12.2 km/h 17.3 mph /  27.8 km/h 67 % 0.00 in /  0 mm
09:42 48.3 °F /  9.1 °C 38.2 °F /  3.4 °C 29.31 in /  992.4 hPa West 4.6 mph /  7.4 km/h 6.9 mph /  11.1 km/h 68 % 0.00 in /  0 mm
09:47 48.2 °F /  9 °C 37.8 °F /  3.2 °C 29.31 in /  992.4 hPa WSW 9.2 mph /  14.8 km/h 18.4 mph /  29.6 km/h 67 % 0.00 in /  0 mm
09:52 48.1 °F /  8.9 °C 37.7 °F /  3.2 °C 29.31 in /  992.4 hPa SW 7.4 mph /  11.9 km/h 18.0 mph /  29 km/h 67 % 0.00 in /  0 mm
09:57 48.0 °F /  8.9 °C 37.6 °F /  3.1 °C 29.31 in /  992.4 hPa SW 5.7 mph /  9.2 km/h 11.5 mph /  18.5 km/h 67 % 0.00 in /  0 mm
10:02 48.0 °F /  8.9 °C 37.6 °F /  3.1 °C 29.31 in /  992.4 hPa SW 10.1 mph /  16.3 km/h 15.0 mph /  24.1 km/h 67 % 0.00 in /  0 mm
10:07 48.0 °F /  8.9 °C 37.9 °F /  3.3 °C 29.31 in /  992.4 hPa WSW 8.4 mph /  13.5 km/h 14.0 mph /  22.5 km/h 68 % 0.00 in /  0 mm
10:12 48.1 °F /  8.9 °C 37.7 °F /  3.2 °C 29.31 in /  992.4 hPa SW 7.5 mph /  12.1 km/h 11.5 mph /  18.5 km/h 67 % 0.00 in /  0 mm
10:17 47.9 °F /  8.8 °C 37.5 °F /  3.1 °C 29.31 in /  992.4 hPa West 8.5 mph /  13.7 km/h 18.4 mph /  29.6 km/h 67 % 0.00 in /  0 mm
10:22 47.8 °F /  8.8 °C 37.4 °F /  3 °C 29.31 in /  992.4 hPa WSW 5.5 mph /  8.9 km/h 11.5 mph /  18.5 km/h 67 % 0.00 in /  0 mm
10:27 47.8 °F /  8.8 °C 37.4 °F /  3 °C 29.31 in /  992.4 hPa SW 6.6 mph /  10.6 km/h 15.0 mph /  24.1 km/h 67 % 0.00 in /  0 mm
10:32 47.7 °F /  8.7 °C 37.3 °F /  2.9 °C 29.32 in /  992.8 hPa WSW 11.6 mph /  18.7 km/h 18.4 mph /  29.6 km/h 67 % 0.00 in /  0 mm
10:37 47.7 °F /  8.7 °C 37.7 °F /  3.2 °C 29.31 in /  992.4 hPa SW 7.9 mph /  12.7 km/h 11.5 mph /  18.5 km/h 68 % 0.00 in /  0 mm
10:42 47.7 °F /  8.7 °C 37.7 °F /  3.2 °C 29.31 in /  992.4 hPa SW 9.0 mph /  14.5 km/h 16.0 mph /  25.7 km/h 68 % 0.00 in /  0 mm
10:47 47.8 °F /  8.8 °C 37.7 °F /  3.2 °C 29.32 in /  992.8 hPa SSW 3.7 mph /  6 km/h 8.1 mph /  13 km/h 68 % 0.00 in /  0 mm
10:52 47.8 °F /  8.8 °C 37.7 °F /  3.2 °C 29.32 in /  992.8 hPa SW 8.0 mph /  12.9 km/h 18.0 mph /  29 km/h 68 % 0.00 in /  0 mm
10:57 47.9 °F /  8.8 °C 37.8 °F /  3.2 °C 29.32 in /  992.8 hPa SW 5.7 mph /  9.2 km/h 10.4 mph /  16.7 km/h 68 % 0.00 in /  0 mm
11:02 47.9 °F /  8.8 °C 37.8 °F /  3.2 °C 29.32 in /  992.8 hPa SW 6.7 mph /  10.8 km/h 17.3 mph /  27.8 km/h 68 % 0.00 in /  0 mm
11:07 48.0 °F /  8.9 °C 38.3 °F /  3.5 °C 29.32 in /  992.8 hPa SSW 9.2 mph /  14.8 km/h 13.8 mph /  22.2 km/h 69 % 0.00 in /  0 mm
11:12 48.1 °F /  8.9 °C 38.4 °F /  3.6 °C 29.32 in /  992.8 hPa WSW 7.9 mph /  12.7 km/h 12.7 mph /  20.4 km/h 69 % 0.00 in /  0 mm
11:17 48.3 °F /  9.1 °C 38.6 °F /  3.7 °C 29.32 in /  992.8 hPa SW 6.7 mph /  10.8 km/h 13.0 mph /  20.9 km/h 69 % 0.00 in /  0 mm
11:23 48.3 °F /  9.1 °C 38.6 °F /  3.7 °C 29.32 in /  992.8 hPa WSW 6.1 mph /  9.8 km/h 9.2 mph /  14.8 km/h 69 % 0.00 in /  0 mm
11:28 48.3 °F /  9.1 °C 38.6 °F /  3.7 °C 29.32 in /  992.8 hPa West 6.0 mph /  9.7 km/h 12.7 mph /  20.4 km/h 69 % 0.00 in /  0 mm
11:33 48.4 °F /  9.1 °C 39.1 °F /  3.9 °C 29.32 in /  992.8 hPa SSW 8.3 mph /  13.4 km/h 13.8 mph /  22.2 km/h 70 % 0.00 in /  0 mm
11:38 48.5 °F /  9.2 °C 38.8 °F /  3.8 °C 29.32 in /  992.8 hPa WSW 8.2 mph /  13.2 km/h 11.5 mph /  18.5 km/h 69 % 0.00 in /  0 mm
11:43 48.7 °F /  9.3 °C 39.4 °F /  4.1 °C 29.32 in /  992.8 hPa SW 6.5 mph /  10.5 km/h 16.1 mph /  25.9 km/h 70 % 0.00 in /  0 mm
11:48 48.8 °F /  9.3 °C 39.1 °F /  3.9 °C 29.32 in /  992.8 hPa SSW 10.1 mph /  16.3 km/h 12.7 mph /  20.4 km/h 69 % 0.00 in /  0 mm
11:53 48.8 °F /  9.3 °C 39.4 °F /  4.1 °C 29.32 in /  992.8 hPa WSW 7.9 mph /  12.7 km/h 13.8 mph /  22.2 km/h 70 % 0.00 in /  0 mm
11:58 49.0 °F /  9.4 °C 39.6 °F /  4.2 °C 29.33 in /  993.1 hPa WSW 5.7 mph /  9.2 km/h 9.2 mph /  14.8 km/h 70 % 0.00 in /  0 mm
12:03 48.9 °F /  9.4 °C 39.2 °F /  4 °C 29.32 in /  992.8 hPa West 6.5 mph /  10.5 km/h 16.1 mph /  25.9 km/h 69 % 0.00 in /  0 mm
12:08 48.9 °F /  9.4 °C 39.5 °F /  4.2 °C 29.32 in /  992.8 hPa WNW 7.0 mph /  11.3 km/h 11.5 mph /  18.5 km/h 70 % 0.00 in /  0 mm
12:13 48.7 °F /  9.3 °C 39.0 °F /  3.9 °C 29.32 in /  992.8 hPa WSW 5.9 mph /  9.5 km/h 11.5 mph /  18.5 km/h 69 % 0.00 in /  0 mm
12:18 48.6 °F /  9.2 °C 38.9 °F /  3.8 °C 29.32 in /  992.8 hPa WSW 8.8 mph /  14.2 km/h 16.1 mph /  25.9 km/h 69 % 0.00 in /  0 mm
12:23 48.6 °F /  9.2 °C 39.3 °F /  4.1 °C 29.32 in /  992.8 hPa WSW 7.6 mph /  12.2 km/h 11.5 mph /  18.5 km/h 70 % 0.00 in /  0 mm
12:28 48.6 °F /  9.2 °C 39.3 °F /  4.1 °C 29.32 in /  992.8 hPa SW 10.7 mph /  17.2 km/h 17.3 mph /  27.8 km/h 70 % 0.00 in /  0 mm
12:33 48.7 °F /  9.3 °C 39.7 °F /  4.3 °C 29.32 in /  992.8 hPa West 7.2 mph /  11.6 km/h 13.0 mph /  20.9 km/h 71 % 0.00 in /  0 mm
12:38 48.9 °F /  9.4 °C 39.5 °F /  4.2 °C 29.32 in /  992.8 hPa SSW 6.1 mph /  9.8 km/h 10.4 mph /  16.7 km/h 70 % 0.00 in /  0 mm
12:43 49.1 °F /  9.5 °C 39.7 °F /  4.3 °C 29.32 in /  992.8 hPa WSW 7.8 mph /  12.6 km/h 11.0 mph /  17.7 km/h 70 % 0.00 in /  0 mm
12:49 48.9 °F /  9.4 °C 38.8 °F /  3.8 °C 29.32 in /  992.8 hPa WSW 11.4 mph /  18.3 km/h 18.4 mph /  29.6 km/h 68 % 0.00 in /  0 mm
12:54 48.5 °F /  9.2 °C 38.8 °F /  3.8 °C 29.32 in /  992.8 hPa WSW 8.3 mph /  13.4 km/h 15.0 mph /  24.1 km/h 69 % 0.00 in /  0 mm
12:59 48.0 °F /  8.9 °C 39.0 °F /  3.9 °C 29.33 in /  993.1 hPa WSW 7.9 mph /  12.7 km/h 15.0 mph /  24.1 km/h 71 % 0.00 in /  0 mm
13:04 46.8 °F /  8.2 °C 38.9 °F /  3.8 °C 29.33 in /  993.1 hPa WSW 7.7 mph /  12.4 km/h 12.7 mph /  20.4 km/h 74 % 0.00 in /  0 mm
13:09 45.9 °F /  7.7 °C 39.1 °F /  3.9 °C 29.33 in /  993.1 hPa WSW 5.3 mph /  8.5 km/h 11.5 mph /  18.5 km/h 77 % 0.00 in /  0 mm
13:14 45.3 °F /  7.4 °C 38.8 °F /  3.8 °C 29.33 in /  993.1 hPa West 2.0 mph /  3.2 km/h 6.9 mph /  11.1 km/h 78 % 0.00 in /  0 mm
13:19 45.0 °F /  7.2 °C 38.9 °F /  3.8 °C 29.34 in /  993.5 hPa WNW 1.9 mph /  3.1 km/h 3.5 mph /  5.6 km/h 79 % 0.00 in /  0 mm
13:24 44.8 °F /  7.1 °C 38.4 °F /  3.6 °C 29.34 in /  993.5 hPa WSW 6.5 mph /  10.5 km/h 15.0 mph /  24.1 km/h 78 % 0.00 in /  0 mm
13:29 44.6 °F /  7 °C 38.5 °F /  3.6 °C 29.34 in /  993.5 hPa West 7.1 mph /  11.4 km/h 11.5 mph /  18.5 km/h 79 % 0.00 in /  0 mm
13:34 44.6 °F /  7 °C 38.8 °F /  3.8 °C 29.33 in /  993.1 hPa SW 5.6 mph /  9 km/h 9.2 mph /  14.8 km/h 80 % 0.00 in /  0 mm
13:39 44.7 °F /  7.1 °C 38.9 °F /  3.8 °C 29.33 in /  993.1 hPa WSW 7.0 mph /  11.3 km/h 11.0 mph /  17.7 km/h 80 % 0.00 in /  0 mm
13:44 44.9 °F /  7.2 °C 38.8 °F /  3.8 °C 29.33 in /  993.1 hPa WNW 4.0 mph /  6.4 km/h 5.8 mph /  9.3 km/h 79 % 0.00 in /  0 mm
13:49 45.3 °F /  7.4 °C 39.2 °F /  4 °C 29.33 in /  993.1 hPa WSW 5.9 mph /  9.5 km/h 11.0 mph /  17.7 km/h 79 % 0.00 in /  0 mm
13:54 45.6 °F /  7.6 °C 39.1 °F /  3.9 °C 29.33 in /  993.1 hPa WSW 2.5 mph /  4 km/h 9.2 mph /  14.8 km/h 78 % 0.00 in /  0 mm
13:59 46.0 °F /  7.8 °C 39.5 °F /  4.2 °C 29.33 in /  993.1 hPa West 6.1 mph /  9.8 km/h 11.5 mph /  18.5 km/h 78 % 0.00 in /  0 mm
14:04 46.3 °F /  7.9 °C 39.8 °F /  4.3 °C 29.33 in /  993.1 hPa West 3.0 mph /  4.8 km/h 11.5 mph /  18.5 km/h 78 % 0.00 in /  0 mm
14:09 46.5 °F /  8.1 °C 40.7 °F /  4.8 °C 29.33 in /  993.1 hPa WSW 5.4 mph /  8.7 km/h 8.1 mph /  13 km/h 80 % 0.00 in /  0 mm
14:14 47.0 °F /  8.3 °C 41.5 °F /  5.3 °C 29.33 in /  993.1 hPa WNW 5.0 mph /  8 km/h 9.0 mph /  14.5 km/h 81 % 0.00 in /  0 mm
14:20 47.6 °F /  8.7 °C 41.1 °F /  5.1 °C 29.33 in /  993.1 hPa WSW 7.1 mph /  11.4 km/h 11.5 mph /  18.5 km/h 78 % 0.00 in /  0 mm
14:25 48.2 °F /  9 °C 40.6 °F /  4.8 °C 29.33 in /  993.1 hPa WSW 9.1 mph /  14.6 km/h 11.5 mph /  18.5 km/h 75 % 0.00 in /  0 mm
14:30 48.4 °F /  9.1 °C 39.8 °F /  4.3 °C 29.33 in /  993.1 hPa West 5.2 mph /  8.4 km/h 11.5 mph /  18.5 km/h 72 % 0.00 in /  0 mm
14:35 48.5 °F /  9.2 °C 39.5 °F /  4.2 °C 29.33 in /  993.1 hPa WSW 8.5 mph /  13.7 km/h 12.0 mph /  19.3 km/h 71 % 0.00 in /  0 mm
14:40 48.7 °F /  9.3 °C 39.4 °F /  4.1 °C 29.33 in /  993.1 hPa WSW 5.8 mph /  9.3 km/h 11.5 mph /  18.5 km/h 70 % 0.00 in /  0 mm
14:45 48.8 °F /  9.3 °C 39.4 °F /  4.1 °C 29.33 in /  993.1 hPa WSW 7.7 mph /  12.4 km/h 11.5 mph /  18.5 km/h 70 % 0.00 in /  0 mm
14:50 48.8 °F /  9.3 °C 38.7 °F /  3.7 °C 29.34 in /  993.5 hPa WSW 8.4 mph /  13.5 km/h 15.0 mph /  24.1 km/h 68 % 0.00 in /  0 mm
14:55 48.7 °F /  9.3 °C 39.0 °F /  3.9 °C 29.34 in /  993.5 hPa WSW 5.1 mph /  8.2 km/h 13.0 mph /  20.9 km/h 69 % 0.00 in /  0 mm
15:00 49.0 °F /  9.4 °C 39.3 °F /  4.1 °C 29.34 in /  993.5 hPa WSW 5.3 mph /  8.5 km/h 12.7 mph /  20.4 km/h 69 % 0.00 in /  0 mm
15:05 49.1 °F /  9.5 °C 38.6 °F /  3.7 °C 29.34 in /  993.5 hPa WSW 10.3 mph /  16.6 km/h 15.0 mph /  24.1 km/h 67 % 0.00 in /  0 mm
15:10 48.8 °F /  9.3 °C 38.7 °F /  3.7 °C 29.34 in /  993.5 hPa WSW 2.8 mph /  4.5 km/h 8.0 mph /  12.9 km/h 68 % 0.00 in /  0 mm
15:15 48.9 °F /  9.4 °C 39.2 °F /  4 °C 29.33 in /  993.1 hPa SW 8.3 mph /  13.4 km/h 13.8 mph /  22.2 km/h 69 % 0.00 in /  0 mm
15:20 49.0 °F /  9.4 °C 39.3 °F /  4.1 °C 29.34 in /  993.5 hPa WNW 2.6 mph /  4.2 km/h 4.6 mph /  7.4 km/h 69 % 0.00 in /  0 mm
15:25 49.0 °F /  9.4 °C 38.9 °F /  3.8 °C 29.34 in /  993.5 hPa SW 5.2 mph /  8.4 km/h 12.7 mph /  20.4 km/h 68 % 0.00 in /  0 mm
15:30 49.1 °F /  9.5 °C 39.0 °F /  3.9 °C 29.34 in /  993.5 hPa WSW 9.3 mph /  15 km/h 16.1 mph /  25.9 km/h 68 % 0.00 in /  0 mm
15:35 49.1 °F /  9.5 °C 39.7 °F /  4.3 °C 29.34 in /  993.5 hPa SW 5.2 mph /  8.4 km/h 10.4 mph /  16.7 km/h 70 % 0.00 in /  0 mm
15:40 48.8 °F /  9.3 °C 39.8 °F /  4.3 °C 29.35 in /  993.8 hPa SSW 4.3 mph /  6.9 km/h 10.0 mph /  16.1 km/h 71 % 0.00 in /  0 mm
15:45 48.4 °F /  9.1 °C 39.4 °F /  4.1 °C 29.34 in /  993.5 hPa West 7.0 mph /  11.3 km/h 11.5 mph /  18.5 km/h 71 % 0.00 in /  0 mm
15:50 48.1 °F /  8.9 °C 39.1 °F /  3.9 °C 29.34 in /  993.5 hPa SW 6.1 mph /  9.8 km/h 11.5 mph /  18.5 km/h 71 % 0.00 in /  0 mm
15:55 47.9 °F /  8.8 °C 38.6 °F /  3.7 °C 29.34 in /  993.5 hPa West 7.3 mph /  11.7 km/h 10.4 mph /  16.7 km/h 70 % 0.00 in /  0 mm
16:00 47.8 °F /  8.8 °C 38.5 °F /  3.6 °C 29.34 in /  993.5 hPa WSW 3.5 mph /  5.6 km/h 10.4 mph /  16.7 km/h 70 % 0.00 in /  0 mm
16:05 47.8 °F /  8.8 °C 38.5 °F /  3.6 °C 29.35 in /  993.8 hPa WSW 9.0 mph /  14.5 km/h 9.2 mph /  14.8 km/h 70 % 0.00 in /  0 mm
16:10 47.9 °F /  8.8 °C 38.6 °F /  3.7 °C 29.35 in /  993.8 hPa WSW 3.9 mph /  6.3 km/h 10.4 mph /  16.7 km/h 70 % 0.00 in /  0 mm
16:15 47.9 °F /  8.8 °C 38.2 °F /  3.4 °C 29.35 in /  993.8 hPa WSW 7.2 mph /  11.6 km/h 14.0 mph /  22.5 km/h 69 % 0.00 in /  0 mm
16:20 48.0 °F /  8.9 °C 38.3 °F /  3.5 °C 29.35 in /  993.8 hPa SW 7.8 mph /  12.6 km/h 11.5 mph /  18.5 km/h 69 % 0.00 in /  0 mm
16:26 48.1 °F /  8.9 °C 38.0 °F /  3.3 °C 29.35 in /  993.8 hPa West 8.4 mph /  13.5 km/h 13.8 mph /  22.2 km/h 68 % 0.00 in /  0 mm
16:36 48.2 °F /  9 °C 37.4 °F /  3 °C 29.36 in /  994.1 hPa WSW 4.0 mph /  6.4 km/h 9.2 mph /  14.8 km/h 66 % 0.00 in /  0 mm
16:41 48.3 °F /  9.1 °C 37.1 °F /  2.8 °C 29.36 in /  994.1 hPa WSW 6.4 mph /  10.3 km/h 10.4 mph /  16.7 km/h 65 % 0.00 in /  0 mm
16:46 48.3 °F /  9.1 °C 37.5 °F /  3.1 °C 29.36 in /  994.1 hPa WSW 8.0 mph /  12.9 km/h 12.7 mph /  20.4 km/h 66 % 0.00 in /  0 mm
16:51 48.3 °F /  9.1 °C 38.2 °F /  3.4 °C 29.36 in /  994.1 hPa WNW 6.9 mph /  11.1 km/h 13.8 mph /  22.2 km/h 68 % 0.00 in /  0 mm
16:56 48.4 °F /  9.1 °C 37.9 °F /  3.3 °C 29.36 in /  994.1 hPa WSW 4.2 mph /  6.8 km/h 11.5 mph /  18.5 km/h 67 % 0.00 in /  0 mm
17:01 48.5 °F /  9.2 °C 38.0 °F /  3.3 °C 29.37 in /  994.5 hPa WSW 9.1 mph /  14.6 km/h 11.5 mph /  18.5 km/h 67 % 0.00 in /  0 mm
17:06 48.4 °F /  9.1 °C 37.2 °F /  2.9 °C 29.37 in /  994.5 hPa West 7.1 mph /  11.4 km/h 10.4 mph /  16.7 km/h 65 % 0.00 in /  0 mm
17:11 48.5 °F /  9.2 °C 36.1 °F /  2.3 °C 29.37 in /  994.5 hPa West 7.8 mph /  12.6 km/h 12.7 mph /  20.4 km/h 62 % 0.00 in /  0 mm
17:16 48.5 °F /  9.2 °C 35.7 °F /  2.1 °C 29.38 in /  994.8 hPa WNW 7.3 mph /  11.7 km/h 15.0 mph /  24.1 km/h 61 % 0.00 in /  0 mm
17:21 48.5 °F /  9.2 °C 35.7 °F /  2.1 °C 29.38 in /  994.8 hPa NNW 7.0 mph /  11.3 km/h 9.2 mph /  14.8 km/h 61 % 0.00 in /  0 mm
17:26 48.5 °F /  9.2 °C 35.7 °F /  2.1 °C 29.38 in /  994.8 hPa West 8.3 mph /  13.4 km/h 11.5 mph /  18.5 km/h 61 % 0.00 in /  0 mm
17:31 48.4 °F /  9.1 °C 35.6 °F /  2 °C 29.39 in /  995.1 hPa SW 10.6 mph /  17.1 km/h 22.0 mph /  35.4 km/h 61 % 0.00 in /  0 mm
17:36 48.3 °F /  9.1 °C 35.9 °F /  2.2 °C 29.39 in /  995.1 hPa West 6.7 mph /  10.8 km/h 14.0 mph /  22.5 km/h 62 % 0.00 in /  0 mm
17:41 48.1 °F /  8.9 °C 35.7 °F /  2.1 °C 29.39 in /  995.1 hPa West 9.4 mph /  15.1 km/h 15.0 mph /  24.1 km/h 62 % 0.00 in /  0 mm
17:46 48.0 °F /  8.9 °C 35.6 °F /  2 °C 29.39 in /  995.1 hPa WNW 8.9 mph /  14.3 km/h 17.3 mph /  27.8 km/h 62 % 0.00 in /  0 mm
17:51 47.9 °F /  8.8 °C 35.1 °F /  1.7 °C 29.39 in /  995.1 hPa SW 7.5 mph /  12.1 km/h 12.7 mph /  20.4 km/h 61 % 0.00 in /  0 mm
17:56 47.9 °F /  8.8 °C 35.1 °F /  1.7 °C 29.40 in /  995.5 hPa West 9.7 mph /  15.6 km/h 17.3 mph /  27.8 km/h 61 % 0.00 in /  0 mm
18:01 47.8 °F /  8.8 °C 35.4 °F /  1.9 °C 29.40 in /  995.5 hPa WSW 9.2 mph /  14.8 km/h 13.8 mph /  22.2 km/h 62 % 0.00 in /  0 mm
18:06 47.8 °F /  8.8 °C 35.4 °F /  1.9 °C 29.41 in /  995.8 hPa WSW 8.5 mph /  13.7 km/h 12.7 mph /  20.4 km/h 62 % 0.00 in /  0 mm
18:11 47.7 °F /  8.7 °C 34.9 °F /  1.6 °C 29.41 in /  995.8 hPa NNW 6.1 mph /  9.8 km/h 11.5 mph /  18.5 km/h 61 % 0.00 in /  0 mm
18:16 47.6 °F /  8.7 °C 34.8 °F /  1.6 °C 29.41 in /  995.8 hPa SW 8.6 mph /  13.8 km/h 14.0 mph /  22.5 km/h 61 % 0.00 in /  0 mm
18:21 47.4 °F /  8.6 °C 34.6 °F /  1.4 °C 29.41 in /  995.8 hPa WSW 6.5 mph /  10.5 km/h 11.0 mph /  17.7 km/h 61 % 0.00 in /  0 mm
18:26 47.3 °F /  8.5 °C 34.5 °F /  1.4 °C 29.42 in /  996.2 hPa West 6.0 mph /  9.7 km/h 10.4 mph /  16.7 km/h 61 % 0.00 in /  0 mm
18:31 47.2 °F /  8.4 °C 34.8 °F /  1.6 °C 29.42 in /  996.2 hPa NW 9.8 mph /  15.8 km/h 18.4 mph /  29.6 km/h 62 % 0.00 in /  0 mm
18:37 47.1 °F /  8.4 °C 34.7 °F /  1.5 °C 29.43 in /  996.5 hPa SW 8.8 mph /  14.2 km/h 12.7 mph /  20.4 km/h 62 % 0.00 in /  0 mm
18:42 47.0 °F /  8.3 °C 34.2 °F /  1.2 °C 29.43 in /  996.5 hPa West 11.4 mph /  18.3 km/h 17.0 mph /  27.4 km/h 61 % 0.00 in /  0 mm
18:47 46.8 °F /  8.2 °C 33.2 °F /  0.7 °C 29.44 in /  996.8 hPa West 10.5 mph /  16.9 km/h 17.0 mph /  27.4 km/h 59 % 0.00 in /  0 mm
18:52 46.6 °F /  8.1 °C 33.4 °F /  0.8 °C 29.44 in /  996.8 hPa WNW 8.4 mph /  13.5 km/h 15.0 mph /  24.1 km/h 60 % 0.00 in /  0 mm
18:57 46.4 °F /  8 °C 33.7 °F /  0.9 °C 29.44 in /  996.8 hPa West 8.1 mph /  13 km/h 12.7 mph /  20.4 km/h 61 % 0.00 in /  0 mm
19:02 46.2 °F /  7.9 °C 34.3 °F /  1.3 °C 29.45 in /  997.2 hPa West 7.5 mph /  12.1 km/h 12.7 mph /  20.4 km/h 63 % 0.00 in /  0 mm
19:07 45.7 °F /  7.6 °C 33.8 °F /  1 °C 29.45 in /  997.2 hPa WNW 9.3 mph /  15 km/h 16.1 mph /  25.9 km/h 63 % 0.00 in /  0 mm
19:12 45.3 °F /  7.4 °C 33.8 °F /  1 °C 29.45 in /  997.2 hPa WSW 8.0 mph /  12.9 km/h 15.0 mph /  24.1 km/h 64 % 0.00 in /  0 mm
19:17 45.0 °F /  7.2 °C 34.3 °F /  1.3 °C 29.45 in /  997.2 hPa NW 7.7 mph /  12.4 km/h 16.1 mph /  25.9 km/h 66 % 0.00 in /  0 mm
19:22 44.7 °F /  7.1 °C 34.4 °F /  1.3 °C 29.46 in /  997.5 hPa WSW 10.2 mph /  16.4 km/h 18.0 mph /  29 km/h 67 % 0.00 in /  0 mm
19:27 44.4 °F /  6.9 °C 33.7 °F /  0.9 °C 29.46 in /  997.5 hPa NW 6.1 mph /  9.8 km/h 18.4 mph /  29.6 km/h 66 % 0.00 in /  0 mm
19:32 44.2 °F /  6.8 °C 33.9 °F /  1.1 °C 29.47 in /  997.9 hPa West 7.6 mph /  12.2 km/h 19.6 mph /  31.5 km/h 67 % 0.00 in /  0 mm
19:37 44.0 °F /  6.7 °C 34.1 °F /  1.2 °C 29.47 in /  997.9 hPa WNW 6.0 mph /  9.7 km/h 15.0 mph /  24.1 km/h 68 % 0.00 in /  0 mm
19:42 43.8 °F /  6.6 °C 33.9 °F /  1.1 °C 29.48 in /  998.2 hPa NW 6.8 mph /  10.9 km/h 12.7 mph /  20.4 km/h 68 % 0.00 in /  0 mm
19:47 43.7 °F /  6.5 °C 34.2 °F /  1.2 °C 29.48 in /  998.2 hPa WNW 3.6 mph /  5.8 km/h 12.7 mph /  20.4 km/h 69 % 0.00 in /  0 mm
19:52 43.6 °F /  6.4 °C 34.1 °F /  1.2 °C 29.48 in /  998.2 hPa WNW 5.0 mph /  8 km/h 13.0 mph /  20.9 km/h 69 % 0.00 in /  0 mm
19:57 43.5 °F /  6.4 °C 34.0 °F /  1.1 °C 29.49 in /  998.5 hPa West 4.3 mph /  6.9 km/h 11.5 mph /  18.5 km/h 69 % 0.00 in /  0 mm
20:02 43.4 °F /  6.3 °C 33.9 °F /  1.1 °C 29.49 in /  998.5 hPa WNW 9.0 mph /  14.5 km/h 16.0 mph /  25.7 km/h 69 % 0.00 in /  0 mm
20:07 43.3 °F /  6.3 °C 33.4 °F /  0.8 °C 29.49 in /  998.5 hPa WNW 4.5 mph /  7.2 km/h 17.3 mph /  27.8 km/h 68 % 0.00 in /  0 mm
20:12 43.2 °F /  6.2 °C 33.3 °F /  0.7 °C 29.50 in /  998.9 hPa WSW 6.5 mph /  10.5 km/h 13.8 mph /  22.2 km/h 68 % 0.00 in /  0 mm
20:17 43.1 °F /  6.2 °C 33.6 °F /  0.9 °C 29.50 in /  998.9 hPa WNW 6.0 mph /  9.7 km/h 15.0 mph /  24.1 km/h 69 % 0.00 in /  0 mm
20:22 43.0 °F /  6.1 °C 33.5 °F /  0.8 °C 29.50 in /  998.9 hPa West 8.9 mph /  14.3 km/h 15.0 mph /  24.1 km/h 69 % 0.00 in /  0 mm
20:27 43.0 °F /  6.1 °C 33.5 °F /  0.8 °C 29.51 in /  999.2 hPa NW 8.5 mph /  13.7 km/h 20.7 mph /  33.3 km/h 69 % 0.00 in /  0 mm
20:32 42.9 °F /  6.1 °C 33.4 °F /  0.8 °C 29.51 in /  999.2 hPa NW 9.6 mph /  15.4 km/h 17.3 mph /  27.8 km/h 69 % 0.00 in /  0 mm
20:37 42.9 °F /  6.1 °C 33.4 °F /  0.8 °C 29.51 in /  999.2 hPa NW 8.3 mph /  13.4 km/h 11.5 mph /  18.5 km/h 69 % 0.00 in /  0 mm
20:42 42.8 °F /  6 °C 33.3 °F /  0.7 °C 29.52 in /  999.5 hPa NW 9.1 mph /  14.6 km/h 11.5 mph /  18.5 km/h 69 % 0.00 in /  0 mm
20:47 42.7 °F /  5.9 °C 33.2 °F /  0.7 °C 29.52 in /  999.5 hPa West 5.6 mph /  9 km/h 12.7 mph /  20.4 km/h 69 % 0.00 in /  0 mm
20:52 42.6 °F /  5.9 °C 33.1 °F /  0.6 °C 29.53 in /  999.9 hPa WNW 8.0 mph /  12.9 km/h 16.0 mph /  25.7 km/h 69 % 0.00 in /  0 mm
20:57 42.5 °F /  5.8 °C 33.0 °F /  0.6 °C 29.53 in /  999.9 hPa WNW 11.9 mph /  19.2 km/h 19.6 mph /  31.5 km/h 69 % 0.00 in /  0 mm
21:02 42.4 °F /  5.8 °C 32.6 °F /  0.3 °C 29.53 in /  999.9 hPa West 9.3 mph /  15 km/h 13.8 mph /  22.2 km/h 68 % 0.00 in /  0 mm
21:04 42.4 °F /  5.8 °C 32.6 °F /  0.3 °C 29.54 in /  1000.2 hPa WNW 7.0 mph /  11.3 km/h 13.8 mph /  22.2 km/h 68 % 0.00 in /  0 mm
21:09 42.3 °F /  5.7 °C 32.8 °F /  0.4 °C 29.54 in /  1000.2 hPa West 7.0 mph /  11.3 km/h 15.0 mph /  24.1 km/h 69 % 0.00 in /  0 mm
21:14 42.2 °F /  5.7 °C 32.8 °F /  0.4 °C 29.55 in /  1000.6 hPa NW 7.3 mph /  11.7 km/h 17.0 mph /  27.4 km/h 69 % 0.00 in /  0 mm
21:18 42.2 °F /  5.7 °C 32.4 °F /  0.2 °C 29.55 in /  1000.6 hPa WNW 7.5 mph /  12.1 km/h 19.6 mph /  31.5 km/h 68 % 0.00 in /  0 mm
21:23 42.1 °F /  5.6 °C 32.3 °F /  0.2 °C 29.55 in /  1000.6 hPa WNW 10.1 mph /  16.3 km/h 18.0 mph /  29 km/h 68 % 0.00 in /  0 mm
21:28 42.1 °F /  5.6 °C 32.7 °F /  0.4 °C 29.55 in /  1000.6 hPa WNW 10.2 mph /  16.4 km/h 14.0 mph /  22.5 km/h 69 % 0.00 in /  0 mm
21:33 42.0 °F /  5.6 °C 32.2 °F /  0.1 °C 29.55 in /  1000.6 hPa WSW 6.7 mph /  10.8 km/h 12.7 mph /  20.4 km/h 68 % 0.00 in /  0 mm
21:38 42.0 °F /  5.6 °C 32.2 °F /  0.1 °C 29.56 in /  1000.9 hPa WSW 6.1 mph /  9.8 km/h 11.5 mph /  18.5 km/h 68 % 0.00 in /  0 mm
21:43 42.0 °F /  5.6 °C 31.8 °F /  -0.1 °C 29.56 in /  1000.9 hPa NW 6.8 mph /  10.9 km/h 21.9 mph /  35.2 km/h 67 % 0.00 in /  0 mm
21:48 41.9 °F /  5.5 °C 31.7 °F /  -0.2 °C 29.56 in /  1000.9 hPa WNW 7.8 mph /  12.6 km/h 11.5 mph /  18.5 km/h 67 % 0.00 in /  0 mm
21:53 41.9 °F /  5.5 °C 31.7 °F /  -0.2 °C 29.56 in /  1000.9 hPa WNW 9.4 mph /  15.1 km/h 19.6 mph /  31.5 km/h 67 % 0.00 in /  0 mm
21:58 41.9 °F /  5.5 °C 31.4 °F /  -0.3 °C 29.56 in /  1000.9 hPa WNW 7.9 mph /  12.7 km/h 13.8 mph /  22.2 km/h 66 % 0.00 in /  0 mm
22:03 42.0 °F /  5.6 °C 31.8 °F /  -0.1 °C 29.56 in /  1000.9 hPa NW 8.2 mph /  13.2 km/h 13.0 mph /  20.9 km/h 67 % 0.00 in /  0 mm
22:08 42.0 °F /  5.6 °C 31.8 °F /  -0.1 °C 29.56 in /  1000.9 hPa WNW 6.5 mph /  10.5 km/h 13.8 mph /  22.2 km/h 67 % 0.00 in /  0 mm
22:13 42.0 °F /  5.6 °C 31.5 °F /  -0.3 °C 29.57 in /  1001.2 hPa WNW 5.2 mph /  8.4 km/h 11.5 mph /  18.5 km/h 66 % 0.00 in /  0 mm
22:18 41.9 °F /  5.5 °C 31.7 °F /  -0.2 °C 29.57 in /  1001.2 hPa West 8.5 mph /  13.7 km/h 13.0 mph /  20.9 km/h 67 % 0.00 in /  0 mm
22:23 41.9 °F /  5.5 °C 31.7 °F /  -0.2 °C 29.57 in /  1001.2 hPa WNW 3.5 mph /  5.6 km/h 9.2 mph /  14.8 km/h 67 % 0.00 in /  0 mm
22:28 41.9 °F /  5.5 °C 31.7 °F /  -0.2 °C 29.57 in /  1001.2 hPa West 7.0 mph /  11.3 km/h 12.7 mph /  20.4 km/h 67 % 0.00 in /  0 mm
22:33 41.8 °F /  5.4 °C 31.3 °F /  -0.4 °C 29.57 in /  1001.2 hPa NW 6.7 mph /  10.8 km/h 17.3 mph /  27.8 km/h 66 % 0.00 in /  0 mm
22:38 41.8 °F /  5.4 °C 31.3 °F /  -0.4 °C 29.57 in /  1001.2 hPa West 7.4 mph /  11.9 km/h 13.8 mph /  22.2 km/h 66 % 0.00 in /  0 mm
22:43 41.7 °F /  5.4 °C 31.5 °F /  -0.3 °C 29.57 in /  1001.2 hPa West 9.9 mph /  15.9 km/h 20.7 mph /  33.3 km/h 67 % 0.00 in /  0 mm
22:48 41.7 °F /  5.4 °C 31.5 °F /  -0.3 °C 29.57 in /  1001.2 hPa NW 7.9 mph /  12.7 km/h 17.3 mph /  27.8 km/h 67 % 0.00 in /  0 mm
22:53 41.6 °F /  5.3 °C 31.1 °F /  -0.5 °C 29.58 in /  1001.6 hPa NW 7.1 mph /  11.4 km/h 11.5 mph /  18.5 km/h 66 % 0.00 in /  0 mm
22:58 41.6 °F /  5.3 °C 31.4 °F /  -0.3 °C 29.58 in /  1001.6 hPa NW 5.9 mph /  9.5 km/h 19.6 mph /  31.5 km/h 67 % 0.00 in /  0 mm
23:03 41.5 °F /  5.3 °C 31.4 °F /  -0.3 °C 29.58 in /  1001.6 hPa West 8.3 mph /  13.4 km/h 15.0 mph /  24.1 km/h 67 % 0.00 in /  0 mm
23:08 41.5 °F /  5.3 °C 31.4 °F /  -0.3 °C 29.58 in /  1001.6 hPa WNW 6.7 mph /  10.8 km/h 11.5 mph /  18.5 km/h 67 % 0.00 in /  0 mm
23:13 41.4 °F /  5.2 °C 31.3 °F /  -0.4 °C 29.58 in /  1001.6 hPa WNW 7.4 mph /  11.9 km/h 13.8 mph /  22.2 km/h 67 % 0.00 in /  0 mm
23:18 41.4 °F /  5.2 °C 31.3 °F /  -0.4 °C 29.58 in /  1001.6 hPa WNW 8.9 mph /  14.3 km/h 15.0 mph /  24.1 km/h 67 % 0.00 in /  0 mm
23:23 41.3 °F /  5.2 °C 31.2 °F /  -0.4 °C 29.58 in /  1001.6 hPa WSW 7.4 mph /  11.9 km/h 12.7 mph /  20.4 km/h 67 % 0.00 in /  0 mm
23:28 41.3 °F /  5.2 °C 31.2 °F /  -0.4 °C 29.58 in /  1001.6 hPa West 7.4 mph /  11.9 km/h 15.0 mph /  24.1 km/h 67 % 0.00 in /  0 mm
23:33 41.3 °F /  5.2 °C 31.2 °F /  -0.4 °C 29.58 in /  1001.6 hPa West 9.3 mph /  15 km/h 13.8 mph /  22.2 km/h 67 % 0.00 in /  0 mm
23:39 41.3 °F /  5.2 °C 31.2 °F /  -0.4 °C 29.58 in /  1001.6 hPa West 5.8 mph /  9.3 km/h 15.0 mph /  24.1 km/h 67 % 0.00 in /  0 mm
23:44 41.3 °F /  5.2 °C 31.2 °F /  -0.4 °C 29.58 in /  1001.6 hPa WNW 6.7 mph /  10.8 km/h 15.0 mph /  24.1 km/h 67 % 0.00 in /  0 mm
23:49 41.3 °F /  5.2 °C 31.2 °F /  -0.4 °C 29.58 in /  1001.6 hPa NNW 7.3 mph /  11.7 km/h 11.0 mph /  17.7 km/h 67 % 0.00 in /  0 mm
23:54 41.2 °F /  5.1 °C 31.4 °F /  -0.3 °C 29.58 in /  1001.6 hPa NW 7.5 mph /  12.1 km/h 14.0 mph /  22.5 km/h 68 % 0.00 in /  0 mm
23:59 41.2 °F /  5.1 °C 31.4 °F /  -0.3 °C 29.58 in /  1001.6 hPa SW 2.8 mph /  4.5 km/h 6.9 mph /  11.1 km/h 68 % 0.00 in /  0 mm
Crab Meadow Weather
Compliments of Weather Underground - 3 mb

Script developed by  Jim McMurry - jmcmurry@mwt.net Adapted for the template by  Wim van der Kuil - Leuven-Template.eu

Weather Terms: Rain/Showers - Rain is a nearly steady and uniform fall of precipitation over an area. Showers are intermittent and/or scattered convective rainfall of varying intensity.